createdAt,value
2022-12-09T00:04:58.612Z,50.58
2022-12-09T00:09:59.576Z,48.58
2022-12-09T00:15:04.465Z,48.83
2022-12-09T00:20:06.576Z,43.33
2022-12-09T00:25:12.227Z,43.42
2022-12-09T00:30:14.552Z,41.00
2022-12-09T00:35:13.694Z,40.67
2022-12-09T00:40:15.397Z,44.67
2022-12-09T00:45:15.961Z,40.40
2022-12-09T00:50:15.028Z,51.17
2022-12-09T00:55:17.420Z,43.88
2022-12-09T01:00:21.066Z,42.27
2022-12-09T01:05:20.163Z,42.53
2022-12-09T01:10:22.974Z,39.25
2022-12-09T01:15:32.650Z,40.22
2022-12-09T01:20:36.918Z,29.50
2022-12-09T01:25:39.469Z,31.42
2022-12-09T01:30:40.691Z,36.53
2022-12-09T01:35:44.749Z,31.42
2022-12-09T01:40:49.016Z,33.28
2022-12-09T01:45:49.742Z,27.38
2022-12-09T01:50:54.389Z,66.40
2022-12-09T01:55:56.977Z,60.15
2022-12-09T02:00:58.035Z,54.87
2022-12-09T02:05:57.408Z,33.53
2022-12-09T02:11:09.183Z,26.02
2022-12-09T02:16:18.977Z,27.05
2022-12-09T02:21:25.952Z,24.33
2022-12-09T02:26:39.807Z,21.67
2022-12-09T02:32:11.571Z,21.75
2022-12-09T02:37:22.630Z,26.40
2022-12-09T02:42:30.090Z,25.13
2022-12-09T02:47:37.031Z,21.48
2022-12-09T02:52:46.789Z,22.15
2022-12-09T02:57:47.384Z,20.50
2022-12-09T03:02:51.516Z,24.08
2022-12-09T03:08:01.812Z,24.80
2022-12-09T03:13:06.916Z,24.67
2022-12-09T03:18:11.060Z,25.73
2022-12-09T03:23:16.274Z,24.95
2022-12-09T03:28:22.931Z,27.63
2022-12-09T03:33:24.526Z,26.52
2022-12-09T03:38:33.212Z,30.10
2022-12-09T03:43:36.583Z,27.00
2022-12-09T03:48:35.916Z,25.52
2022-12-09T03:53:44.380Z,28.73
2022-12-09T03:58:46.509Z,29.75
2022-12-09T04:03:46.579Z,28.98
2022-12-09T04:08:49.568Z,27.80
2022-12-09T04:13:48.875Z,26.55
2022-12-09T04:18:51.280Z,24.17
2022-12-09T04:23:52.185Z,25.13
2022-12-09T04:28:52.075Z,30.73
2022-12-09T04:33:51.446Z,28.95
2022-12-09T04:38:51.891Z,28.45
2022-12-09T04:43:51.050Z,27.10
2022-12-09T04:48:50.523Z,27.85
2022-12-09T04:53:50.037Z,27.85
2022-12-09T04:58:51.859Z,32.38
2022-12-09T05:03:55.004Z,27.23
2022-12-09T05:08:54.961Z,25.70
2022-12-09T05:13:58.671Z,28.88
2022-12-09T05:19:01.731Z,31.08
2022-12-09T05:24:04.432Z,30.33
2022-12-09T05:29:06.504Z,50.17
2022-12-09T05:34:09.376Z,41.42
2022-12-09T05:39:15.845Z,39.78
2022-12-09T05:44:18.405Z,31.20
2022-12-09T05:49:18.518Z,32.53
2022-12-09T05:54:17.920Z,28.38
2022-12-09T05:59:18.974Z,39.70
2022-12-09T06:04:20.128Z,30.83
2022-12-09T06:09:20.355Z,51.08
2022-12-09T06:14:21.432Z,37.28
2022-12-09T06:19:21.013Z,35.63
2022-12-09T06:24:22.531Z,38.30
2022-12-09T06:29:23.493Z,27.73
2022-12-09T06:34:23.832Z,24.95
2022-12-09T06:39:23.420Z,48.30
2022-12-09T06:44:24.545Z,32.03
2022-12-09T06:49:24.061Z,30.40
2022-12-09T06:54:23.693Z,22.60
2022-12-09T06:59:25.462Z,23.45
2022-12-09T07:04:27.044Z,21.27
2022-12-09T07:09:26.896Z,16.60
2022-12-09T07:14:27.678Z,19.08
2022-12-09T07:19:29.292Z,23.85
2022-12-09T07:24:29.764Z,25.30
2022-12-09T07:29:33.623Z,21.40
2022-12-09T07:34:33.314Z,21.30
2022-12-09T07:40:01.709Z,15.23
2022-12-09T07:45:40.229Z,18.52
2022-12-09T07:52:08.513Z,17.55
2022-12-09T07:57:11.393Z,20.67
2022-12-09T08:02:14.762Z,21.08
2022-12-09T08:07:16.465Z,25.55
2022-12-09T08:12:19.577Z,21.60
2022-12-09T08:17:24.596Z,30.33
2022-12-09T08:22:28.354Z,36.92
2022-12-09T08:54:53.606Z,30.95
2022-12-09T08:59:57.854Z,34.67
2022-12-09T09:05:01.654Z,23.58
2022-12-09T09:10:03.596Z,22.23
2022-12-09T09:15:04.608Z,22.45
2022-12-09T09:20:09.299Z,17.25
2022-12-09T09:25:17.053Z,18.83
2022-12-09T09:30:19.914Z,20.05
2022-12-09T09:40:29.742Z,16.80
2022-12-09T09:45:31.992Z,18.33
2022-12-09T09:50:37.810Z,22.35
2022-12-09T09:55:47.574Z,23.27
2022-12-09T10:00:56.899Z,21.88
2022-12-09T10:06:02.884Z,23.25
2022-12-09T10:11:19.551Z,20.48
2022-12-09T10:16:23.972Z,19.38
2022-12-09T10:21:43.471Z,18.55
2022-12-09T10:27:16.631Z,14.98
2022-12-09T10:32:29.926Z,21.47
2022-12-09T10:37:35.345Z,21.55
2022-12-09T10:43:10.998Z,22.60
2022-12-09T10:48:27.928Z,23.25
2022-12-09T10:53:35.384Z,23.48
2022-12-09T10:58:35.907Z,28.52
2022-12-09T11:03:55.884Z,24.23
2022-12-09T11:09:01.126Z,25.90
2022-12-09T11:14:03.606Z,34.80
2022-12-09T11:19:07.650Z,30.10
2022-12-09T11:24:26.145Z,35.40
2022-12-09T11:29:26.718Z,35.58
2022-12-09T11:34:29.279Z,34.45
2022-12-09T11:39:32.539Z,39.47
2022-12-09T11:44:35.356Z,44.50
2022-12-09T11:49:49.931Z,46.17
2022-12-09T11:54:57.263Z,50.17
2022-12-09T12:00:03.489Z,51.58
2022-12-09T12:05:21.621Z,64.28
2022-12-09T12:10:26.790Z,66.22
2022-12-09T12:15:34.353Z,65.60
2022-12-09T12:21:03.964Z,70.15
2022-12-09T12:26:10.597Z,73.22
2022-12-09T12:31:30.546Z,66.95
2022-12-09T12:36:40.843Z,59.78
2022-12-09T12:41:54.500Z,58.15
2022-12-09T12:47:05.910Z,54.05
2022-12-09T12:52:55.577Z,55.03
2022-12-09T12:57:55.852Z,50.33
2022-12-09T13:03:09.602Z,55.25
2022-12-09T13:08:21.358Z,47.92
2022-12-09T13:13:31.197Z,50.05
2022-12-09T13:18:36.371Z,60.65
2022-12-09T13:23:57.954Z,62.13
2022-12-09T13:29:12.119Z,56.38
2022-12-09T13:34:29.230Z,53.83
2022-12-09T13:39:59.163Z,61.70
2022-12-09T13:45:09.670Z,65.10
2022-12-09T13:50:26.759Z,59.53
2022-12-09T13:55:50.475Z,65.55
2022-12-09T14:01:06.986Z,64.63
2022-12-09T14:06:23.839Z,56.53
2022-12-09T14:11:52.011Z,60.45
2022-12-09T14:16:51.940Z,52.10
2022-12-09T14:22:24.440Z,40.90
2022-12-09T14:27:28.901Z,42.10
2022-12-09T14:32:31.393Z,37.95
2022-12-09T14:37:47.529Z,37.03
2022-12-09T14:42:53.719Z,37.58
2022-12-09T14:47:54.610Z,48.22
2022-12-09T14:52:59.536Z,50.88
2022-12-09T14:58:09.745Z,53.20
2022-12-09T15:03:36.884Z,62.83
2022-12-09T15:08:44.312Z,37.10
2022-12-09T15:13:49.060Z,54.78
2022-12-09T15:18:51.935Z,51.20
2022-12-09T15:23:52.409Z,52.25
2022-12-09T15:28:56.603Z,47.03
2022-12-09T15:33:59.620Z,75.18
2022-12-09T15:39:04.242Z,66.30
2022-12-09T15:44:11.641Z,55.53
2022-12-09T15:49:14.976Z,60.22
2022-12-09T15:54:20.968Z,42.13
2022-12-09T15:59:27.156Z,45.13
2022-12-09T16:04:31.042Z,41.58
2022-12-09T16:09:34.856Z,36.88
2022-12-09T16:15:00.304Z,35.67
2022-12-09T16:20:01.530Z,45.08
2022-12-09T16:25:17.938Z,46.00
2022-12-09T16:30:24.832Z,52.65
2022-12-09T16:35:27.434Z,41.33
2022-12-09T16:41:02.200Z,40.30
2022-12-09T16:46:39.622Z,43.70
2022-12-09T16:51:40.659Z,32.85
2022-12-09T16:56:41.950Z,36.97
2022-12-09T17:01:46.776Z,32.85
2022-12-09T17:06:46.510Z,37.88
2022-12-09T17:11:48.983Z,41.08
2022-12-09T17:16:55.924Z,32.92
2022-12-09T17:21:55.846Z,31.20
2022-12-09T17:26:56.219Z,29.35
2022-12-09T17:31:57.500Z,32.92
2022-12-09T17:36:58.624Z,28.58
2022-12-09T17:41:58.411Z,37.63
2022-12-09T17:47:01.733Z,30.95
2022-12-09T17:52:01.755Z,30.95
2022-12-09T17:57:01.703Z,32.67
2022-12-09T18:02:05.693Z,26.50
2022-12-09T18:07:06.848Z,26.27
2022-12-09T18:12:14.190Z,33.97
2022-12-09T18:17:17.518Z,25.83
2022-12-09T18:22:17.471Z,21.92
2022-12-09T18:27:17.537Z,25.05
2022-12-09T18:32:20.124Z,18.83
2022-12-09T18:37:20.464Z,33.20
2022-12-09T18:42:21.369Z,33.63
2022-12-09T18:47:24.423Z,26.80
2022-12-09T18:52:24.081Z,28.88
2022-12-09T18:57:30.546Z,30.60
2022-12-09T19:02:37.022Z,25.60
2022-12-09T19:07:36.921Z,23.83
2022-12-09T19:12:50.634Z,22.50
2022-12-09T19:17:55.178Z,20.63
2022-12-09T19:22:55.467Z,20.63
2022-12-09T19:27:55.201Z,32.20
2022-12-09T19:32:58.264Z,39.63
2022-12-09T19:38:01.682Z,30.42
2022-12-09T19:48:05.493Z,30.85
2022-12-09T19:58:05.065Z,29.88
2022-12-09T20:03:06.880Z,27.40
2022-12-09T20:08:15.266Z,26.63
2022-12-09T20:13:27.198Z,27.67
2022-12-09T20:18:48.139Z,29.75
2022-12-09T20:23:54.584Z,34.97
2022-12-09T20:28:58.855Z,35.10
2022-12-09T20:34:05.263Z,28.13
2022-12-09T20:39:11.626Z,28.75
2022-12-09T20:44:19.039Z,30.88
2022-12-09T20:49:27.562Z,36.50
2022-12-09T20:54:33.688Z,33.90
2022-12-09T20:59:33.454Z,43.55
2022-12-09T21:04:36.473Z,29.33
2022-12-09T21:09:39.151Z,26.55
2022-12-09T21:14:43.380Z,27.17
2022-12-09T21:19:44.546Z,28.20
2022-12-09T21:24:44.294Z,33.13
2022-12-09T21:29:48.404Z,29.80
2022-12-09T21:34:55.783Z,26.63
2022-12-09T21:39:55.475Z,27.95
2022-12-09T21:44:58.246Z,26.05
2022-12-09T21:50:04.016Z,25.95
2022-12-09T21:55:10.770Z,27.08
2022-12-09T22:00:22.942Z,22.83
2022-12-09T22:05:30.635Z,21.30
2022-12-09T22:10:42.098Z,20.48
2022-12-09T22:15:51.159Z,21.35
2022-12-09T22:21:26.035Z,21.40
2022-12-09T22:26:30.567Z,17.90
2022-12-09T22:31:40.121Z,15.93
2022-12-09T22:36:42.212Z,16.52
2022-12-09T22:42:01.993Z,15.95
2022-12-09T22:47:03.875Z,14.02
2022-12-09T22:52:10.500Z,20.20
2022-12-09T22:57:10.898Z,18.50
2022-12-09T23:02:12.122Z,17.65
2022-12-09T23:07:17.730Z,16.00
2022-12-09T23:12:27.490Z,14.23
2022-12-09T23:17:29.182Z,12.82
2022-12-09T23:22:36.948Z,13.85
2022-12-09T23:27:40.801Z,17.23
2022-12-09T23:32:45.749Z,17.27
2022-12-09T23:37:52.791Z,17.48
2022-12-09T23:43:01.776Z,23.83
2022-12-09T23:48:05.204Z,20.92
2022-12-09T23:58:16.968Z,22.58
